createdAt,value
2019-04-26T00:00:28.161Z,100.00
2019-04-26T00:05:35.369Z,100.00
2019-04-26T00:10:38.153Z,100.00
2019-04-26T00:15:42.741Z,100.00
2019-04-26T00:20:47.390Z,100.00
2019-04-26T00:25:51.704Z,100.00
2019-04-26T00:30:55.870Z,100.00
2019-04-26T00:36:00.040Z,100.00
2019-04-26T00:41:04.421Z,100.00
2019-04-26T00:46:09.349Z,100.00
2019-04-26T00:51:15.312Z,100.00
2019-04-26T00:56:20.173Z,100.00
2019-04-26T01:01:24.962Z,100.00
2019-04-26T01:06:30.200Z,100.00
2019-04-26T01:11:34.360Z,100.00
2019-04-26T01:16:38.761Z,100.00
2019-04-26T01:21:47.662Z,100.00
2019-04-26T01:26:53.294Z,100.00
2019-04-26T01:32:03.495Z,100.00
2019-04-26T01:37:07.921Z,100.00
2019-04-26T01:42:12.250Z,100.00
2019-04-26T01:47:16.321Z,100.00
2019-04-26T01:52:22.392Z,100.00
2019-04-26T01:57:29.331Z,100.00
2019-04-26T02:02:33.582Z,100.00
2019-04-26T02:07:37.724Z,100.00
2019-04-26T02:12:44.380Z,100.00
2019-04-26T02:17:49.453Z,100.00
2019-04-26T02:22:53.621Z,100.00
2019-04-26T02:27:57.682Z,100.00
2019-04-26T02:33:01.834Z,100.00
2019-04-26T02:38:06.022Z,100.00
2019-04-26T02:43:10.223Z,100.00
2019-04-26T02:48:16.463Z,100.00
2019-04-26T02:53:32.954Z,100.00
2019-04-26T02:58:46.143Z,100.00
2019-04-26T03:03:53.466Z,100.00
2019-04-26T03:08:57.671Z,100.00
2019-04-26T03:14:03.531Z,100.00
2019-04-26T03:19:16.350Z,100.00
2019-04-26T03:24:25.393Z,100.00
2019-04-26T03:29:43.885Z,100.00
2019-04-26T03:34:56.182Z,100.00
2019-04-26T03:40:08.461Z,100.00
2019-04-26T03:45:27.595Z,100.00
2019-04-26T03:50:40.928Z,100.00
2019-04-26T03:56:15.049Z,100.00
2019-04-26T04:01:19.330Z,100.00
2019-04-26T04:06:26.042Z,100.00
2019-04-26T04:11:38.632Z,100.00
2019-04-26T04:16:55.190Z,100.00
2019-04-26T04:22:04.872Z,100.00
2019-04-26T04:27:17.592Z,100.00
2019-04-26T04:32:35.365Z,100.00
2019-04-26T04:38:04.330Z,100.00
2019-04-26T04:43:06.199Z,100.00
2019-04-26T04:48:12.872Z,100.00
2019-04-26T04:53:43.462Z,100.00
2019-04-26T04:58:52.543Z,100.00
2019-04-26T05:04:02.335Z,100.00
2019-04-26T05:09:11.272Z,100.00
2019-04-26T05:14:38.094Z,100.00
2019-04-26T05:19:57.130Z,100.00
2019-04-26T05:25:19.072Z,100.00
2019-04-26T05:30:35.967Z,100.00
2019-04-26T05:35:55.173Z,100.00
2019-04-26T05:41:12.133Z,100.00
2019-04-26T05:46:42.161Z,100.00
2019-04-26T05:52:04.102Z,100.00
2019-04-26T05:57:22.774Z,100.00
2019-04-26T06:02:39.032Z,100.00
2019-04-26T06:08:01.041Z,100.00
2019-04-26T06:13:11.603Z,100.00
2019-04-26T06:18:21.745Z,100.00
2019-04-26T06:23:45.553Z,100.00
2019-04-26T06:29:01.139Z,100.00
2019-04-26T06:34:13.058Z,100.00
2019-04-26T06:39:25.794Z,100.00
2019-04-26T06:44:37.673Z,100.00
2019-04-26T06:49:53.258Z,100.00
2019-04-26T06:55:06.991Z,100.00
2019-04-26T07:00:13.481Z,100.00
2019-04-26T07:05:25.278Z,100.00
2019-04-26T07:10:49.853Z,100.00
2019-04-26T07:16:22.346Z,100.00
2019-04-26T07:21:25.891Z,100.00
2019-04-26T07:26:40.341Z,100.00
2019-04-26T07:31:51.470Z,100.00
2019-04-26T07:37:10.055Z,100.00
2019-04-26T07:42:35.097Z,100.00
2019-04-26T07:48:07.811Z,100.00
2019-04-26T07:53:27.261Z,100.00
2019-04-26T07:58:49.314Z,100.00
2019-04-26T08:03:55.784Z,100.00
2019-04-26T08:09:07.534Z,100.00
2019-04-26T08:14:15.794Z,100.00
2019-04-26T08:19:21.914Z,100.00
2019-04-26T08:24:28.272Z,100.00
2019-04-26T08:29:35.040Z,100.00
2019-04-26T08:34:41.535Z,100.00
2019-04-26T08:39:51.705Z,100.00
2019-04-26T08:44:55.722Z,100.00
2019-04-26T08:50:00.891Z,100.00
2019-04-26T08:55:06.983Z,100.00
2019-04-26T09:00:15.438Z,100.00
2019-04-26T09:05:23.693Z,100.00
2019-04-26T09:10:30.075Z,100.00
2019-04-26T09:15:57.920Z,100.00
2019-04-26T09:21:02.179Z,100.00
2019-04-26T09:26:08.646Z,100.00
2019-04-26T09:31:15.329Z,100.00
2019-04-26T09:36:18.435Z,100.00
2019-04-26T09:41:22.619Z,100.00
2019-04-26T09:46:26.860Z,100.00
2019-04-26T09:51:34.847Z,100.00
2019-04-26T09:56:38.638Z,100.00
2019-04-26T10:01:42.901Z,95.26
2019-04-26T10:06:47.060Z,95.07
2019-04-26T10:11:51.297Z,98.22
2019-04-26T10:16:55.772Z,100.00
2019-04-26T10:21:59.941Z,100.00
2019-04-26T10:27:04.949Z,100.00
2019-04-26T10:32:09.620Z,100.00
2019-04-26T10:37:13.781Z,100.00
2019-04-26T10:42:18.185Z,98.98
2019-04-26T10:47:22.340Z,92.85
2019-04-26T10:52:26.480Z,85.19
2019-04-26T10:57:30.930Z,83.41
2019-04-26T11:02:37.024Z,84.51
2019-04-26T11:07:41.410Z,82.38
2019-04-26T11:12:45.832Z,82.79
2019-04-26T11:17:51.000Z,84.89
2019-04-26T11:22:55.302Z,77.78
2019-04-26T11:28:01.728Z,72.83
2019-04-26T11:33:07.283Z,77.46
2019-04-26T11:38:11.866Z,81.08
2019-04-26T11:43:19.506Z,79.17
2019-04-26T11:48:25.443Z,78.89
2019-04-26T11:53:28.011Z,77.76
2019-04-26T11:58:32.260Z,82.13
2019-04-26T12:03:36.384Z,81.01
2019-04-26T12:08:40.632Z,81.01
2019-04-26T12:13:44.925Z,79.96
2019-04-26T12:18:49.050Z,82.03
2019-04-26T12:23:55.503Z,85.83
2019-04-26T12:28:59.040Z,85.83
2019-04-26T12:34:03.259Z,79.24
2019-04-26T12:39:08.222Z,81.68
2019-04-26T12:44:12.601Z,81.68
2019-04-26T12:49:20.264Z,83.16
2019-04-26T12:54:22.904Z,83.16
2019-04-26T12:59:28.210Z,83.46
2019-04-26T13:04:36.291Z,88.03
2019-04-26T13:09:38.539Z,88.42
2019-04-26T13:14:44.166Z,86.26
2019-04-26T13:19:49.524Z,82.90
2019-04-26T13:24:57.322Z,82.34
2019-04-26T13:30:02.666Z,85.39
2019-04-26T13:35:11.439Z,88.83
2019-04-26T13:40:14.592Z,90.85
2019-04-26T13:45:19.046Z,90.85
2019-04-26T13:50:26.646Z,88.86
2019-04-26T13:55:30.450Z,90.57
2019-04-26T14:00:34.770Z,94.40
2019-04-26T14:05:38.935Z,91.45
2019-04-26T14:10:45.556Z,91.53
2019-04-26T14:15:52.088Z,94.11
2019-04-26T14:20:59.032Z,93.73
2019-04-26T14:26:05.622Z,95.19
2019-04-26T14:31:12.363Z,96.44
2019-04-26T14:36:18.145Z,97.42
2019-04-26T14:41:23.692Z,100.00
2019-04-26T14:46:28.021Z,100.00
2019-04-26T14:51:32.192Z,100.00
2019-04-26T14:56:36.261Z,100.00
2019-04-26T15:01:43.036Z,100.00
2019-04-26T15:06:47.203Z,100.00
2019-04-26T15:11:57.819Z,100.00
2019-04-26T15:16:57.364Z,100.00
2019-04-26T15:22:04.139Z,100.00
2019-04-26T15:27:07.477Z,100.00
2019-04-26T15:32:13.089Z,100.00
2019-04-26T15:37:20.224Z,100.00
2019-04-26T15:42:29.098Z,100.00
2019-04-26T15:47:29.300Z,100.00
2019-04-26T15:52:34.135Z,100.00
2019-04-26T15:57:39.317Z,100.00
2019-04-26T16:02:43.861Z,100.00
2019-04-26T16:07:48.375Z,100.00
